Time;durP1;ratioP1;P1;durP2;ratioP2;P2;SDS_P1;SDS_P2;PMS_P1;PMS_P2;Temp;Humidity;BMP_temperature;BMP_pressure;BME280_temperature;BME280_humidity;BME280_pressure;Samples;Min_cycle;Max_cycle;Signal;HPM_P1;HPM_P2
2022/07/01 00:02:13;;;;;;;4.32;1.80;;;15.60;99.90;;;;;;5051458;28;20057;-65
2022/07/01 00:04:41;;;;;;;5.25;2.08;;;15.60;99.90;;;;;;5051453;28;20051;-66
2022/07/01 00:07:06;;;;;;;4.40;1.98;;;15.50;99.90;;;;;;5031507;28;20402;-66
2022/07/01 00:09:32;;;;;;;7.47;2.40;;;15.60;99.90;;;;;;5033690;28;20052;-66
2022/07/01 00:11:58;;;;;;;7.05;2.20;;;15.50;99.90;;;;;;5032747;28;20053;-66
2022/07/01 00:14:24;;;;;;;4.95;2.63;;;;;;;;;;5051373;28;20051;-66
2022/07/01 00:16:50;;;;;;;5.72;2.45;;;15.50;99.90;;;;;;5051303;28;20049;-66
2022/07/01 00:19:16;;;;;;;6.57;2.40;;;15.60;99.90;;;;;;5051236;28;20512;-65
2022/07/01 00:21:42;;;;;;;6.88;2.30;;;15.40;99.90;;;;;;5051259;28;20048;-66
2022/07/01 00:24:07;;;;;;;5.32;2.33;;;15.10;99.90;;;;;;5051290;28;20049;-66
2022/07/01 00:26:33;;;;;;;6.55;2.30;;;15.40;99.90;;;;;;5051144;28;20392;-65
2022/07/01 00:28:59;;;;;;;6.03;2.55;;;15.50;99.90;;;;;;5051128;28;20045;-65
2022/07/01 00:31:25;;;;;;;6.32;2.55;;;15.50;99.90;;;;;;5051412;28;20049;-66
2022/07/01 00:33:50;;;;;;;4.88;2.10;;;15.00;99.90;;;;;;5051300;28;20048;-66
2022/07/01 00:36:16;;;;;;;4.38;2.42;;;15.00;99.90;;;;;;5051131;28;20057;-66
2022/07/01 00:38:42;;;;;;;4.35;2.20;;;15.50;99.90;;;;;;5050994;28;20049;-66
2022/07/01 00:41:07;;;;;;;5.97;2.40;;;15.60;99.90;;;;;;5051279;28;20056;-66
2022/07/01 00:43:38;;;;;;;6.00;2.30;;;15.60;99.90;;;;;;5051058;28;20485;-66
2022/07/01 00:46:04;;;;;;;4.45;2.20;;;14.90;99.90;;;;;;5051309;28;20162;-66
2022/07/01 00:48:33;;;;;;;5.55;2.13;;;15.50;99.90;;;;;;5051379;28;20055;-66
2022/07/01 00:50:58;;;;;;;5.72;2.40;;;15.50;99.90;;;;;;5050701;28;20083;-66
2022/07/01 00:53:25;;;;;;;4.38;2.10;;;15.50;99.90;;;;;;5051376;28;20646;-66
2022/07/01 00:55:51;;;;;;;4.80;2.08;;;15.40;99.90;;;;;;5050782;28;20056;-66
2022/07/01 00:58:16;;;;;;;4.95;1.90;;;15.30;99.90;;;;;;5051051;28;20060;-67
2022/07/01 01:00:56;;;;;;;4.03;1.83;;;15.50;99.90;;;;;;5108234;22;20600;-56
2022/07/01 01:03:24;;;;;;;5.72;1.73;;;15.50;99.90;;;;;;5049363;28;20056;-56
2022/07/01 01:05:50;;;;;;;2.95;1.63;;;15.50;99.90;;;;;;5071321;28;20082;-56
2022/07/01 01:08:16;;;;;;;5.20;1.60;;;14.90;99.90;;;;;;5072380;28;20047;-57
2022/07/01 01:10:44;;;;;;;4.07;1.60;;;15.60;99.90;;;;;;5091116;28;20044;-56
2022/07/01 01:13:10;;;;;;;4.75;1.40;;;15.50;99.90;;;;;;5091071;28;20430;-56
2022/07/01 01:15:37;;;;;;;4.20;1.58;;;;;;;;;;5091589;28;20051;-56
2022/07/01 01:18:03;;;;;;;3.47;1.42;;;15.00;99.90;;;;;;5091270;28;20397;-56
2022/07/01 01:20:36;;;;;;;3.42;1.45;;;15.30;99.90;;;;;;5091331;28;20040;-56
2022/07/01 01:23:03;;;;;;;2.17;1.50;;;15.50;99.90;;;;;;5092667;28;20051;-56
2022/07/01 01:25:29;;;;;;;1.67;1.30;;;16.10;99.90;;;;;;5091870;28;20546;-56
2022/07/01 01:27:58;;;;;;;5.85;1.40;;;15.60;99.90;;;;;;5094555;28;20343;-59
2022/07/01 01:30:24;;;;;;;2.80;1.50;;;15.90;99.90;;;;;;5094426;28;20102;-56
2022/07/01 01:32:52;;;;;;;2.17;1.40;;;15.40;99.90;;;;;;5094824;28;20052;-56
2022/07/01 01:35:19;;;;;;;3.88;1.60;;;15.00;99.90;;;;;;5094841;28;20067;-56
2022/07/01 01:37:44;;;;;;;2.80;1.50;;;16.00;99.90;;;;;;5094964;28;20079;-56
2022/07/01 01:40:13;;;;;;;4.38;1.70;;;15.60;99.90;;;;;;5094525;28;20564;-56
2022/07/01 01:42:39;;;;;;;2.55;1.60;;;15.90;99.90;;;;;;5094575;28;20059;-56
2022/07/01 01:45:05;;;;;;;2.90;1.60;;;15.60;99.90;;;;;;5094419;28;20078;-59
2022/07/01 01:47:31;;;;;;;3.40;1.63;;;15.20;99.90;;;;;;5094576;28;20071;-59
2022/07/01 01:49:57;;;;;;;3.53;1.60;;;15.40;99.90;;;;;;5094412;28;20067;-59
2022/07/01 01:52:23;;;;;;;3.17;1.52;;;15.40;99.90;;;;;;5075848;28;20494;-59
2022/07/01 01:54:49;;;;;;;3.28;1.40;;;15.70;99.90;;;;;;5094274;28;20098;-59
2022/07/01 01:57:15;;;;;;;3.95;1.45;;;15.20;99.90;;;;;;5075718;28;20549;-59
2022/07/01 01:59:41;;;;;;;5.53;1.60;;;15.50;99.90;;;;;;5075705;28;20048;-59
2022/07/01 02:02:07;;;;;;;4.05;1.70;;;;;;;;;;5093897;28;20089;-59
2022/07/01 02:04:33;;;;;;;3.65;2.10;;;15.60;99.90;;;;;;5092527;28;20499;-59
2022/07/01 02:06:59;;;;;;;3.35;2.40;;;15.80;99.90;;;;;;5076058;28;20052;-59
2022/07/01 02:09:28;;;;;;;3.55;2.60;;;15.80;99.90;;;;;;5093812;28;20085;-59
2022/07/01 02:11:53;;;;;;;6.38;3.33;;;15.30;99.90;;;;;;5093881;28;20047;-59
2022/07/01 02:14:19;;;;;;;8.38;6.03;;;15.90;99.90;;;;;;5093663;28;20056;-59
2022/07/01 02:16:47;;;;;;;7.82;6.68;;;15.30;99.90;;;;;;5093725;28;20159;-59
2022/07/01 02:19:13;;;;;;;13.93;10.85;;;;;;;;;;5092186;28;20047;-59
2022/07/01 02:21:39;;;;;;;16.15;13.20;;;15.60;99.90;;;;;;5093846;28;20044;-59
2022/07/01 02:24:05;;;;;;;19.35;16.38;;;15.40;99.90;;;;;;5093692;28;20410;-59
2022/07/01 02:26:32;;;;;;;24.85;20.42;;;15.60;99.90;;;;;;5093852;28;20109;-59
2022/07/01 02:28:58;;;;;;;27.60;20.27;;;15.50;99.90;;;;;;5093746;28;20048;-58
2022/07/01 02:31:24;;;;;;;25.02;20.17;;;15.50;99.90;;;;;;5075475;28;20109;-58
2022/07/01 02:33:50;;;;;;;26.35;19.45;;;15.30;99.90;;;;;;5092954;28;20117;-59
2022/07/01 02:36:16;;;;;;;23.48;18.52;;;15.40;99.90;;;;;;5075229;28;20074;-59
2022/07/01 02:38:44;;;;;;;24.02;17.27;;;15.50;99.90;;;;;;5075223;28;20044;-59
2022/07/01 02:41:09;;;;;;;20.13;16.77;;;15.50;99.90;;;;;;5093150;28;20507;-59
2022/07/01 02:43:36;;;;;;;21.13;16.45;;;16.00;99.90;;;;;;5093361;28;20059;-59
2022/07/01 02:46:02;;;;;;;21.23;16.63;;;15.20;99.90;;;;;;5093393;28;20403;-59
2022/07/01 02:48:28;;;;;;;23.88;16.95;;;15.50;99.90;;;;;;5093507;28;20036;-59
2022/07/01 02:50:54;;;;;;;25.98;17.38;;;15.50;99.90;;;;;;5093270;28;20444;-59
2022/07/01 02:53:20;;;;;;;23.80;17.02;;;;;;;;;;5093376;28;20048;-59
2022/07/01 02:55:47;;;;;;;24.70;17.20;;;14.80;99.90;;;;;;5074842;28;20048;-59
2022/07/01 02:58:13;;;;;;;29.17;17.20;;;15.50;99.90;;;;;;5093510;28;20185;-59
2022/07/01 03:00:39;;;;;;;23.63;17.88;;;15.30;99.90;;;;;;5093167;28;20075;-59
2022/07/01 03:08:37;;;;;;;21.15;16.00;;;14.90;99.90;;;;;;5146706;23;20053;-59
2022/07/01 03:11:03;;;;;;;20.95;14.60;;;15.60;99.90;;;;;;5034667;28;20373;-59
2022/07/01 03:13:29;;;;;;;19.60;15.27;;;;;;;;;;5033343;28;20046;-59
2022/07/01 03:15:57;;;;;;;20.88;13.98;;;15.50;99.90;;;;;;5034089;28;20058;-59
2022/07/01 03:18:23;;;;;;;20.00;12.90;;;15.00;99.90;;;;;;5034735;28;20057;-59
2022/07/01 03:20:51;;;;;;;17.45;12.73;;;15.40;99.90;;;;;;5034133;28;20130;-61
2022/07/01 03:23:17;;;;;;;16.33;12.70;;;15.40;99.90;;;;;;5034495;28;20054;-61
2022/07/01 03:25:42;;;;;;;14.93;11.50;;;15.40;99.90;;;;;;5034373;28;20103;-61
2022/07/01 03:28:08;;;;;;;16.17;11.82;;;15.30;99.90;;;;;;5034276;28;20546;-61
2022/07/01 03:30:34;;;;;;;15.05;11.98;;;15.40;99.90;;;;;;5034385;28;20057;-61
2022/07/01 03:33:00;;;;;;;14.35;11.80;;;15.30;99.90;;;;;;5033933;28;20037;-61
2022/07/01 03:35:45;;;;;;;16.58;12.75;;;15.30;99.90;;;;;;5033935;28;20124;-62
2022/07/01 03:38:15;;;;;;;16.58;12.27;;;15.20;99.90;;;;;;5034145;28;20052;-59
2022/07/01 03:40:41;;;;;;;17.90;12.98;;;16.00;99.90;;;;;;5032454;28;20103;-56
2022/07/01 03:43:06;;;;;;;17.80;13.10;;;15.20;99.90;;;;;;5033926;28;20054;-56
2022/07/01 03:45:33;;;;;;;20.90;14.20;;;15.20;99.90;;;;;;5032752;28;20045;-56
2022/07/01 03:47:59;;;;;;;20.15;14.23;;;15.10;99.90;;;;;;5033858;28;20087;-56
2022/07/01 03:50:25;;;;;;;22.95;15.35;;;14.70;99.90;;;;;;5033632;28;20052;-56
2022/07/01 03:55:38;;;;;;;21.97;16.23;;;14.80;99.90;;;;;;5033904;28;20408;-56
2022/07/01 03:58:04;;;;;;;22.13;16.67;;;;;;;;;;5033781;28;20081;-56
2022/07/01 04:00:34;;;;;;;25.05;17.55;;;15.20;99.90;;;;;;5032227;28;20049;-56
2022/07/01 04:03:00;;;;;;;22.88;17.05;;;15.60;99.90;;;;;;5033565;28;20057;-56
2022/07/01 04:05:26;;;;;;;26.23;17.88;;;15.10;99.90;;;;;;5033430;28;20427;-56
2022/07/01 04:07:51;;;;;;;27.13;17.75;;;15.80;99.90;;;;;;5032796;28;20050;-56
2022/07/01 04:10:17;;;;;;;23.98;18.02;;;15.10;99.90;;;;;;5032974;28;20077;-56
2022/07/01 04:12:43;;;;;;;25.30;19.67;;;15.00;99.90;;;;;;5033348;28;20135;-56
2022/07/01 04:15:10;;;;;;;27.13;19.60;;;14.90;99.90;;;;;;5026291;28;20400;-56
2022/07/01 04:17:37;;;;;;;27.40;20.08;;;15.10;99.90;;;;;;5020840;28;20532;-56
2022/07/01 04:20:04;;;;;;;28.52;21.67;;;15.10;99.90;;;;;;5013147;28;20046;-56
2022/07/01 04:22:37;;;;;;;27.88;20.38;;;15.20;99.90;;;;;;5013075;28;20045;-56
2022/07/01 04:25:04;;;;;;;32.78;21.30;;;15.10;99.90;;;;;;5013272;28;20056;-56
2022/07/01 04:27:33;;;;;;;30.23;22.90;;;15.00;99.90;;;;;;5011688;28;20107;-56
2022/07/01 04:30:02;;;;;;;31.55;23.33;;;15.10;99.90;;;;;;5012913;28;20497;-56
2022/07/01 04:32:28;;;;;;;29.27;23.13;;;15.10;99.90;;;;;;5013260;28;20058;-56
2022/07/01 04:34:54;;;;;;;30.80;23.38;;;;;;;;;;5013386;28;20082;-56
2022/07/01 04:37:20;;;;;;;34.03;23.55;;;15.10;99.90;;;;;;5013230;28;20049;-59
2022/07/01 04:39:46;;;;;;;32.28;23.88;;;15.10;99.90;;;;;;5011823;28;20123;-60
2022/07/01 04:42:17;;;;;;;33.30;23.63;;;15.10;99.90;;;;;;5012903;28;20073;-59
2022/07/01 04:44:46;;;;;;;32.97;24.17;;;15.70;99.90;;;;;;5012311;28;20454;-59
2022/07/01 04:47:11;;;;;;;34.58;23.95;;;14.90;99.90;;;;;;5011619;28;20133;-61
2022/07/01 04:49:37;;;;;;;30.50;23.67;;;15.10;99.90;;;;;;5012678;28;20042;-59
2022/07/01 04:52:03;;;;;;;33.20;24.23;;;14.90;99.90;;;;;;5012829;28;20064;-59
2022/07/01 04:54:29;;;;;;;31.23;23.60;;;15.00;99.90;;;;;;5012735;28;20042;-60
2022/07/01 04:56:54;;;;;;;31.25;23.83;;;15.30;99.90;;;;;;5012777;28;20046;-57
2022/07/01 04:59:20;;;;;;;30.23;22.98;;;15.10;99.90;;;;;;5017030;28;20046;-60
2022/07/01 05:01:50;;;;;;;32.55;24.55;;;15.20;99.90;;;;;;5016955;28;20489;-59
2022/07/01 05:04:17;;;;;;;34.67;25.65;;;15.20;99.90;;;;;;5016710;28;20092;-59
2022/07/01 05:06:43;;;;;;;34.83;25.45;;;;;;;;;;5016110;28;20104;-59
2022/07/01 05:09:09;;;;;;;30.88;24.55;;;15.10;99.90;;;;;;5016414;28;20062;-60
2022/07/01 05:11:35;;;;;;;32.65;24.50;;;15.10;99.90;;;;;;5016608;28;20272;-60
2022/07/01 05:14:01;;;;;;;35.83;27.02;;;15.10;99.90;;;;;;5022700;28;20048;-60
2022/07/01 05:16:27;;;;;;;31.05;25.45;;;14.90;99.90;;;;;;5025034;28;20048;-56
2022/07/01 05:21:56;;;;;;;29.67;24.52;;;15.50;99.90;;;;;;5016254;28;20049;-56
2022/07/01 05:24:23;;;;;;;33.05;26.13;;;15.10;99.90;;;;;;5016159;28;20050;-57
2022/07/01 05:26:50;;;;;;;32.88;25.55;;;15.10;99.90;;;;;;5014818;28;20484;-59
2022/07/01 05:29:16;;;;;;;36.53;26.73;;;15.20;99.90;;;;;;5015144;28;20524;-60
2022/07/01 05:31:42;;;;;;;36.83;26.77;;;15.20;99.90;;;;;;5015132;28;20053;-60
2022/07/01 05:34:07;;;;;;;34.63;27.17;;;15.20;99.90;;;;;;5015980;28;20050;-60
2022/07/01 05:36:34;;;;;;;32.28;26.50;;;15.40;99.90;;;;;;5016332;28;20077;-60
2022/07/01 05:39:00;;;;;;;36.72;27.80;;;;;;;;;;5015950;28;20072;-60
2022/07/01 05:41:27;;;;;;;32.20;26.23;;;15.30;99.90;;;;;;5015943;28;20041;-60
2022/07/01 05:43:52;;;;;;;32.38;26.20;;;15.30;99.90;;;;;;5015854;28;20088;-60
2022/07/01 05:46:18;;;;;;;34.70;26.40;;;15.40;99.90;;;;;;5015965;28;20081;-60
2022/07/01 05:48:44;;;;;;;35.20;27.80;;;15.00;99.90;;;;;;5015948;28;20100;-60
2022/07/01 05:51:11;;;;;;;31.85;25.88;;;15.50;99.90;;;;;;5015956;28;20554;-60
2022/07/01 05:53:37;;;;;;;32.78;25.75;;;15.50;99.90;;;;;;5015610;28;20481;-60
2022/07/01 05:56:03;;;;;;;32.03;25.58;;;15.70;99.90;;;;;;5015768;28;20053;-60
2022/07/01 05:58:29;;;;;;;34.05;24.27;;;15.00;99.90;;;;;;5015623;28;20442;-60
2022/07/01 06:00:55;;;;;;;33.78;25.23;;;15.00;99.90;;;;;;5015230;28;20461;-60
2022/07/01 06:03:20;;;;;;;31.08;24.33;;;15.50;99.90;;;;;;5016029;28;20042;-60
2022/07/01 06:05:46;;;;;;;31.38;23.85;;;15.90;99.90;;;;;;5015277;28;20053;-60
2022/07/01 06:08:12;;;;;;;29.80;24.13;;;15.80;99.90;;;;;;5014847;28;20046;-60
2022/07/01 06:10:38;;;;;;;30.63;22.67;;;;;;;;;;5014538;28;20057;-60
2022/07/01 06:13:04;;;;;;;29.60;23.77;;;15.70;99.90;;;;;;5015403;28;20042;-60
2022/07/01 06:15:32;;;;;;;32.45;24.25;;;16.10;99.90;;;;;;5023461;28;20045;-60
2022/07/01 06:17:58;;;;;;;29.55;22.83;;;15.90;99.90;;;;;;5034880;28;20493;-61
2022/07/01 06:20:25;;;;;;;28.63;23.00;;;15.80;99.90;;;;;;5034696;28;20114;-60
2022/07/01 06:22:53;;;;;;;28.23;22.63;;;15.90;99.90;;;;;;5033065;28;20045;-60
2022/07/01 06:25:18;;;;;;;30.95;22.20;;;16.40;99.90;;;;;;5034986;28;20413;-60
2022/07/01 06:27:46;;;;;;;25.83;21.42;;;16.20;99.90;;;;;;5034821;28;20045;-60
2022/07/01 06:30:14;;;;;;;26.50;21.95;;;16.30;99.90;;;;;;5034552;28;20041;-60
2022/07/01 06:32:40;;;;;;;27.13;21.73;;;16.70;99.90;;;;;;5034616;28;20045;-60
2022/07/01 06:35:07;;;;;;;28.55;22.55;;;16.70;99.90;;;;;;5033328;28;20393;-60
2022/07/01 06:37:35;;;;;;;28.90;22.42;;;16.30;99.90;;;;;;5033531;28;20128;-60
2022/07/01 06:40:05;;;;;;;32.72;23.05;;;16.50;99.90;;;;;;5034508;28;20068;-60
2022/07/01 06:42:32;;;;;;;29.20;22.42;;;16.40;99.90;;;;;;5034246;28;20041;-60
2022/07/01 06:44:59;;;;;;;27.23;21.65;;;17.00;99.90;;;;;;5034292;28;20081;-60
2022/07/01 06:47:25;;;;;;;24.38;21.23;;;17.10;99.90;;;;;;5034512;28;20069;-60
2022/07/01 06:49:51;;;;;;;26.65;22.10;;;16.80;99.90;;;;;;5034561;28;20080;-60
2022/07/01 06:52:19;;;;;;;29.65;22.33;;;16.90;99.90;;;;;;5034510;28;20463;-60
2022/07/01 06:54:45;;;;;;;32.92;23.50;;;16.40;99.90;;;;;;5034032;28;20092;-60
2022/07/01 06:57:11;;;;;;;27.42;22.60;;;;;;;;;;5034298;28;20089;-57
2022/07/01 06:59:37;;;;;;;28.60;22.70;;;17.00;99.90;;;;;;5034186;28;20072;-56
2022/07/01 07:02:07;;;;;;;25.90;21.90;;;17.10;99.90;;;;;;5034399;28;20052;-57
2022/07/01 07:04:33;;;;;;;25.33;22.10;;;16.80;99.90;;;;;;5034459;28;20049;-57
2022/07/01 07:06:59;;;;;;;27.80;21.27;;;16.80;99.90;;;;;;5033896;28;20427;-57
2022/07/01 07:09:24;;;;;;;26.65;21.90;;;16.90;99.90;;;;;;5034071;28;20064;-57
2022/07/01 07:11:50;;;;;;;26.30;21.88;;;17.20;99.90;;;;;;5020951;28;20042;-57
2022/07/01 07:14:16;;;;;;;28.10;23.33;;;16.20;99.90;;;;;;5031274;28;20049;-57
2022/07/01 07:16:42;;;;;;;29.65;22.48;;;16.80;99.90;;;;;;5033077;28;20513;-60
2022/07/01 07:19:07;;;;;;;31.02;23.48;;;16.40;99.90;;;;;;5032807;28;20603;-60
2022/07/01 07:21:33;;;;;;;29.77;23.63;;;16.60;99.90;;;;;;5032021;28;20041;-60
2022/07/01 07:23:59;;;;;;;29.25;24.10;;;16.60;99.90;;;;;;5033158;28;20436;-60
2022/07/01 07:26:24;;;;;;;29.27;22.90;;;16.60;99.90;;;;;;5032851;28;20524;-60
2022/07/01 07:28:51;;;;;;;31.67;23.65;;;16.80;99.90;;;;;;5032990;28;20408;-60
2022/07/01 07:31:16;;;;;;;30.17;23.35;;;17.00;99.90;;;;;;5032571;28;20053;-60
2022/07/01 07:33:42;;;;;;;31.92;22.52;;;16.90;99.90;;;;;;5032694;28;20054;-59
2022/07/01 07:36:07;;;;;;;26.30;22.05;;;16.10;99.90;;;;;;5032860;28;20064;-59
2022/07/01 07:38:36;;;;;;;27.88;22.13;;;16.50;99.90;;;;;;5032370;28;20120;-59
2022/07/01 07:41:04;;;;;;;31.83;23.88;;;16.70;99.90;;;;;;5032670;28;20444;-61
2022/07/01 07:43:30;;;;;;;30.75;22.77;;;16.90;99.90;;;;;;5032390;28;20046;-56
2022/07/01 07:45:56;;;;;;;28.02;21.77;;;17.10;99.90;;;;;;5030648;28;20041;-57
2022/07/01 07:48:22;;;;;;;25.38;20.88;;;17.20;99.90;;;;;;5032139;28;20107;-57
2022/07/01 07:50:48;;;;;;;28.27;21.40;;;17.00;99.90;;;;;;5031049;28;20123;-56
2022/07/01 07:53:13;;;;;;;27.45;20.75;;;18.00;99.90;;;;;;5032931;28;20045;-56
2022/07/01 07:55:40;;;;;;;26.08;20.95;;;18.20;99.90;;;;;;5033621;28;20049;-56
2022/07/01 07:58:06;;;;;;;27.67;21.00;;;18.80;99.90;;;;;;5033443;28;20057;-57
2022/07/01 08:00:32;;;;;;;25.42;19.50;;;18.10;99.90;;;;;;5033125;28;20053;-56
2022/07/01 08:02:58;;;;;;;24.40;18.75;;;18.20;99.90;;;;;;5031594;28;20102;-56
2022/07/01 08:05:24;;;;;;;29.00;19.50;;;18.30;99.90;;;;;;5031164;28;20479;-56
2022/07/01 08:07:49;;;;;;;27.45;19.52;;;18.20;99.90;;;;;;5031878;28;20057;-56
2022/07/01 08:10:15;;;;;;;19.95;17.15;;;18.20;99.90;;;;;;5031219;28;20187;-57
2022/07/01 08:12:41;;;;;;;27.73;19.20;;;18.50;99.90;;;;;;5031051;28;20045;-57
2022/07/01 08:15:08;;;;;;;23.92;19.15;;;17.90;99.90;;;;;;5032309;28;20045;-59
2022/07/01 08:17:36;;;;;;;24.38;18.88;;;18.10;99.90;;;;;;5032757;28;20049;-60
2022/07/01 08:20:02;;;;;;;22.05;17.58;;;17.90;99.90;;;;;;5032516;28;20056;-59
2022/07/01 08:22:28;;;;;;;25.55;18.35;;;18.30;99.90;;;;;;5032398;28;20049;-60
2022/07/01 08:24:55;;;;;;;20.67;17.70;;;18.00;99.90;;;;;;5032605;28;20041;-59
2022/07/01 08:27:22;;;;;;;25.13;18.13;;;18.60;99.90;;;;;;5016581;28;20041;-57
2022/07/01 08:29:50;;;;;;;21.95;17.10;;;18.20;99.90;;;;;;5012397;28;20046;-57
2022/07/01 08:32:16;;;;;;;24.20;16.25;;;19.10;99.90;;;;;;5012575;28;20382;-57
2022/07/01 08:34:42;;;;;;;22.83;16.25;;;;;;;;;;5016465;28;20046;-57
2022/07/01 08:37:10;;;;;;;20.77;15.45;;;19.80;99.90;;;;;;5016166;28;20060;-57
2022/07/01 08:39:35;;;;;;;22.30;15.98;;;19.80;99.90;;;;;;5016620;28;20078;-57
2022/07/01 08:42:03;;;;;;;21.48;15.95;;;20.20;99.90;;;;;;4982426;28;20501;-56
2022/07/01 08:44:28;;;;;;;18.75;14.23;;;20.50;99.90;;;;;;5016218;28;20493;-57
2022/07/01 08:46:54;;;;;;;21.55;13.88;;;20.30;99.90;;;;;;5016074;28;20096;-57
2022/07/01 08:49:21;;;;;;;20.13;13.00;;;21.10;99.90;;;;;;5015959;28;20048;-57
2022/07/01 08:51:47;;;;;;;16.75;13.45;;;21.20;99.90;;;;;;5016231;28;20121;-57
2022/07/01 08:54:12;;;;;;;17.80;12.70;;;21.10;99.90;;;;;;5014648;28;20125;-57
2022/07/01 08:56:41;;;;;;;17.00;11.98;;;21.30;99.90;;;;;;5025051;28;20052;-57
2022/07/01 08:59:11;;;;;;;19.52;12.90;;;21.50;99.90;;;;;;5035666;28;20045;-57
2022/07/01 09:01:37;;;;;;;17.98;12.50;;;21.60;99.90;;;;;;5034515;28;20092;-57
2022/07/01 09:04:17;;;;;;;21.63;12.65;;;22.10;99.90;;;;;;5034685;28;20445;-57
2022/07/01 09:06:45;;;;;;;14.53;10.40;;;21.80;99.90;;;;;;5035189;28;20647;-57
2022/07/01 09:09:16;;;;;;;14.40;9.93;;;21.90;99.90;;;;;;5035136;28;20128;-58
2022/07/01 09:11:53;;;;;;;13.57;10.20;;;22.00;99.90;;;;;;5035618;28;20053;-56
2022/07/01 09:14:22;;;;;;;18.65;10.90;;;22.60;99.90;;;;;;5035456;28;20049;-57
2022/07/01 09:16:55;;;;;;;14.00;9.57;;;23.10;99.90;;;;;;5035462;28;20155;-57
2022/07/01 09:19:24;;;;;;;17.55;9.48;;;22.70;99.90;;;;;;5035112;28;20045;-57
2022/07/01 09:21:51;;;;;;;16.58;8.95;;;22.70;99.90;;;;;;5035355;28;20042;-57
2022/07/01 09:24:25;;;;;;;15.02;9.48;;;21.90;99.90;;;;;;5034159;28;20056;-57
2022/07/01 09:26:53;;;;;;;13.93;8.15;;;22.50;99.90;;;;;;5035112;28;20099;-61
2022/07/01 09:29:19;;;;;;;13.38;7.95;;;22.20;99.90;;;;;;5035020;28;20069;-57
2022/07/01 09:31:49;;;;;;;12.98;8.63;;;21.70;99.90;;;;;;5035568;28;20098;-57
2022/07/01 09:34:15;;;;;;;15.50;8.90;;;21.40;99.90;;;;;;5034367;28;20567;-57
2022/07/01 09:36:51;;;;;;;16.98;10.38;;;21.30;99.90;;;;;;5034329;28;20099;-57
2022/07/01 09:39:18;;;;;;;17.17;9.57;;;21.10;99.90;;;;;;5033077;28;20053;-56
2022/07/01 09:41:44;;;;;;;13.57;9.20;;;20.90;99.90;;;;;;5033587;28;20492;-57
2022/07/01 09:44:10;;;;;;;13.40;8.65;;;21.00;99.90;;;;;;5032740;28;20044;-57
2022/07/01 09:46:36;;;;;;;15.82;8.60;;;21.80;99.90;;;;;;5032981;28;20046;-57
2022/07/01 09:49:02;;;;;;;18.02;8.77;;;20.90;99.90;;;;;;5033992;28;20060;-57
2022/07/01 09:51:30;;;;;;;12.45;8.95;;;20.90;99.90;;;;;;5034285;28;20045;-57
2022/07/01 09:53:59;;;;;;;18.45;8.80;;;21.00;99.90;;;;;;5034813;28;20081;-57
2022/07/01 09:56:24;;;;;;;15.02;7.55;;;20.80;99.90;;;;;;5025297;28;20048;-57
2022/07/01 09:58:50;;;;;;;8.93;5.88;;;20.90;99.90;;;;;;5013402;28;20050;-57
2022/07/01 10:01:19;;;;;;;11.05;6.68;;;20.90;99.90;;;;;;5014695;28;20422;-57
2022/07/01 10:03:45;;;;;;;15.65;7.18;;;20.50;99.90;;;;;;5014723;28;20050;-57
2022/07/01 10:06:31;;;;;;;14.10;7.03;;;20.60;99.90;;;;;;5014625;28;20128;-57
2022/07/01 10:09:08;;;;;;;;;;;20.80;99.90;;;;;;5014977;28;20064;-57
2022/07/01 10:11:52;;;;;;;11.20;6.38;;;21.20;99.90;;;;;;5015107;28;19917;-57
2022/07/01 10:14:22;;;;;;;10.57;6.68;;;21.20;99.90;;;;;;5014105;28;20045;-61
2022/07/01 10:16:48;;;;;;;9.77;6.22;;;21.50;99.90;;;;;;5015059;28;20409;-61
2022/07/01 10:19:20;;;;;;;13.00;6.78;;;21.70;99.90;;;;;;5014192;28;20046;-61
2022/07/01 10:21:46;;;;;;;11.57;7.32;;;21.80;99.90;;;;;;5014596;28;20494;-61
2022/07/01 10:24:19;;;;;;;10.75;7.38;;;21.60;99.90;;;;;;5014196;28;20141;-61
2022/07/01 10:26:45;;;;;;;14.02;6.88;;;21.50;99.90;;;;;;5014619;28;20128;-61
2022/07/01 10:29:34;;;;;;;12.10;6.55;;;21.70;99.90;;;;;;5013854;28;20585;-61
2022/07/01 10:32:22;;;;;;;8.38;5.40;;;22.00;99.90;;;;;;5013269;28;20104;-57
2022/07/01 10:34:48;;;;;;;12.52;5.43;;;22.10;99.90;;;;;;5014612;28;20076;-57
2022/07/01 10:37:17;;;;;;;9.60;4.78;;;22.20;99.90;;;;;;5033484;28;20055;-57
2022/07/01 10:39:59;;;;;;;10.88;5.60;;;22.30;99.90;;;;;;5032370;28;20041;-57
2022/07/01 10:42:33;;;;;;;9.02;5.03;;;22.50;99.90;;;;;;5033415;28;20208;-57
2022/07/01 10:45:11;;;;;;;7.97;5.13;;;22.60;99.90;;;;;;5032146;28;20056;-57
2022/07/01 10:47:38;;;;;;;9.40;5.20;;;22.50;99.70;;;;;;5032748;28;20050;-57
2022/07/01 10:50:19;;;;;;;10.65;5.10;;;22.20;99.90;;;;;;5033490;28;20171;-57
2022/07/01 10:53:03;;;;;;;9.18;5.00;;;22.10;99.90;;;;;;5033831;28;20409;-57
2022/07/01 10:55:40;;;;;;;9.35;4.53;;;22.60;99.90;;;;;;5032459;28;20080;-57
2022/07/01 10:58:07;;;;;;;11.73;5.05;;;22.20;99.00;;;;;;5013673;28;20054;-61
2022/07/01 11:00:35;;;;;;;9.02;4.30;;;22.60;99.90;;;;;;5013608;28;20057;-61
2022/07/01 11:03:20;;;;;;;7.78;4.32;;;22.70;99.90;;;;;;5013901;28;20054;-61
2022/07/01 11:05:48;;;;;;;8.50;4.20;;;22.80;97.80;;;;;;5013584;28;20099;-62
2022/07/01 11:08:16;;;;;;;8.43;4.53;;;23.10;99.90;;;;;;5013331;28;20081;-61
2022/07/01 11:10:42;;;;;;;9.52;4.57;;;23.00;95.90;;;;;;5029003;28;20049;-62
2022/07/01 11:13:14;;;;;;;9.27;4.53;;;23.10;95.40;;;;;;5033193;28;20377;-57
2022/07/01 11:15:41;;;;;;;7.75;4.00;;;22.60;98.50;;;;;;5033705;28;20041;-56
2022/07/01 11:18:08;;;;;;;11.68;4.28;;;22.90;94.90;;;;;;5033882;28;20057;-57
2022/07/01 11:20:33;;;;;;;9.48;3.50;;;22.80;95.10;;;;;;5034146;28;20049;-57
2022/07/01 11:23:00;;;;;;;9.52;3.63;;;22.70;94.40;;;;;;5034010;28;20824;-57
2022/07/01 11:25:26;;;;;;;6.00;3.38;;;22.90;99.90;;;;;;5033742;28;20065;-57
2022/07/01 11:27:53;;;;;;;7.68;3.33;;;22.70;95.10;;;;;;5033440;28;20146;-57
2022/07/01 11:30:21;;;;;;;7.65;3.60;;;22.90;99.60;;;;;;5033064;28;20045;-58
2022/07/01 11:32:58;;;;;;;10.65;4.47;;;23.10;94.70;;;;;;5031874;28;20053;-57
2022/07/01 11:41:18;;;;;;;11.23;3.88;;;23.20;94.30;;;;;;5033383;28;20053;-57
2022/07/01 11:43:43;;;;;;;6.95;3.80;;;23.40;95.00;;;;;;5033628;28;20041;-57
2022/07/01 11:46:10;;;;;;;13.13;3.90;;;23.50;97.70;;;;;;5033481;28;20488;-57
2022/07/01 11:48:42;;;;;;;8.05;3.50;;;24.00;98.10;;;;;;5033195;28;20045;-56
2022/07/01 11:51:12;;;;;;;5.95;3.13;;;23.80;98.20;;;;;;5032107;28;20049;-57
2022/07/01 11:53:39;;;;;;;8.93;3.28;;;23.80;97.50;;;;;;5033227;28;20060;-57
2022/07/01 11:56:05;;;;;;;7.95;3.40;;;23.60;92.30;;;;;;5033580;28;20203;-56
2022/07/01 11:58:50;;;;;;;7.75;3.45;;;23.70;92.00;;;;;;5033359;28;20056;-56
2022/07/01 12:01:25;;;;;;;10.13;3.72;;;23.80;97.50;;;;;;5033298;28;20050;-57
2022/07/01 12:03:52;;;;;;;7.10;3.20;;;23.70;91.70;;;;;;5032929;28;20560;-56
2022/07/01 12:06:19;;;;;;;7.80;3.17;;;23.80;92.00;;;;;;5032805;28;20430;-57
2022/07/01 12:08:47;;;;;;;9.23;3.33;;;23.90;92.80;;;;;;5031172;28;20045;-57
2022/07/01 12:11:14;;;;;;;6.28;2.70;;;24.80;93.80;;;;;;5031919;28;20397;-57
2022/07/01 12:13:40;;;;;;;9.57;2.97;;;23.90;87.60;;;;;;5033234;28;20045;-57
2022/07/01 12:16:10;;;;;;;9.18;3.17;;;23.80;88.50;;;;;;5033081;28;20034;-57
2022/07/01 12:19:02;;;;;;;8.60;2.78;;;23.60;88.40;;;;;;5033085;28;20053;-57
2022/07/01 12:21:29;;;;;;;7.25;2.92;;;23.50;88.10;;;;;;5033031;28;20507;-57
2022/07/01 12:24:12;;;;;;;7.28;3.00;;;23.50;89.50;;;;;;5033288;28;20124;-57
2022/07/01 12:26:59;;;;;;;6.22;2.85;;;23.40;87.00;;;;;;5032960;28;20050;-56
2022/07/01 12:29:30;;;;;;;8.35;2.60;;;23.20;90.30;;;;;;5033324;28;20087;-56
2022/07/01 12:31:57;;;;;;;7.65;2.47;;;23.00;90.80;;;;;;5033115;28;20396;-57
2022/07/01 12:34:35;;;;;;;6.80;2.40;;;22.50;96.20;;;;;;5032996;28;20045;-57
2022/07/01 12:37:02;;;;;;;5.38;2.20;;;22.90;92.00;;;;;;5032936;28;20053;-57
2022/07/01 12:39:29;;;;;;;6.97;2.25;;;23.10;91.40;;;;;;5031520;28;20046;-57
2022/07/01 12:41:57;;;;;;;9.00;2.15;;;23.50;91.20;;;;;;5032789;28;20057;-57
2022/07/01 12:44:27;;;;;;;8.40;2.30;;;23.80;89.60;;;;;;5032653;28;20045;-57
2022/07/01 12:46:54;;;;;;;10.52;2.00;;;24.00;87.40;;;;;;5032645;28;20111;-62
2022/07/01 12:49:25;;;;;;;9.43;2.20;;;24.20;85.80;;;;;;5032813;28;20050;-62
2022/07/01 12:51:53;;;;;;;4.70;2.00;;;24.10;84.60;;;;;;5032737;28;20038;-62
2022/07/01 12:54:31;;;;;;;13.85;2.40;;;24.00;90.30;;;;;;5032956;28;20084;-63
2022/07/01 12:56:57;;;;;;;6.90;2.00;;;24.00;84.20;;;;;;5032979;28;20046;-62
2022/07/01 12:59:24;;;;;;;7.43;2.10;;;24.00;85.00;;;;;;5032805;28;20045;-62